sensor_id;sensor_type;location;lat;lon;timestamp;temperature;humidity
31379;DHT22;61664;48.112;11.662;2023-08-07T00:02:25;15.10;91.20
31379;DHT22;61664;48.112;11.662;2023-08-07T00:04:52;15.10;91.00
31379;DHT22;61664;48.112;11.662;2023-08-07T00:07:19;15.00;90.90
31379;DHT22;61664;48.112;11.662;2023-08-07T00:09:46;15.10;91.00
31379;DHT22;61664;48.112;11.662;2023-08-07T00:12:13;15.10;91.20
31379;DHT22;61664;48.112;11.662;2023-08-07T00:14:40;15.10;91.20
31379;DHT22;61664;48.112;11.662;2023-08-07T00:17:06;15.10;91.00
31379;DHT22;61664;48.112;11.662;2023-08-07T00:19:35;15.00;90.40
31379;DHT22;61664;48.112;11.662;2023-08-07T00:22:01;15.00;90.00
31379;DHT22;61664;48.112;11.662;2023-08-07T00:24:28;15.00;89.90
31379;DHT22;61664;48.112;11.662;2023-08-07T00:26:55;15.00;89.40
31379;DHT22;61664;48.112;11.662;2023-08-07T00:29:23;14.80;88.10
31379;DHT22;61664;48.112;11.662;2023-08-07T00:31:50;14.80;88.20
31379;DHT22;61664;48.112;11.662;2023-08-07T00:34:16;14.70;88.60
31379;DHT22;61664;48.112;11.662;2023-08-07T00:36:44;14.60;89.50
31379;DHT22;61664;48.112;11.662;2023-08-07T00:39:10;14.60;90.40
31379;DHT22;61664;48.112;11.662;2023-08-07T00:41:37;14.50;90.40
31379;DHT22;61664;48.112;11.662;2023-08-07T00:44:04;14.50;90.60
31379;DHT22;61664;48.112;11.662;2023-08-07T00:46:32;14.40;90.40
31379;DHT22;61664;48.112;11.662;2023-08-07T00:49:00;14.40;89.10
31379;DHT22;61664;48.112;11.662;2023-08-07T00:51:27;14.20;88.20
31379;DHT22;61664;48.112;11.662;2023-08-07T00:53:54;14.20;88.10
31379;DHT22;61664;48.112;11.662;2023-08-07T00:56:21;14.00;88.40
31379;DHT22;61664;48.112;11.662;2023-08-07T00:58:49;13.90;88.70
31379;DHT22;61664;48.112;11.662;2023-08-07T01:01:17;13.80;89.40
31379;DHT22;61664;48.112;11.662;2023-08-07T01:03:44;13.60;89.50
31379;DHT22;61664;48.112;11.662;2023-08-07T01:06:11;13.50;89.90
31379;DHT22;61664;48.112;11.662;2023-08-07T01:08:38;13.40;90.30
31379;DHT22;61664;48.112;11.662;2023-08-07T01:11:30;13.30;90.80
31379;DHT22;61664;48.112;11.662;2023-08-07T01:19:43;13.10;91.80
31379;DHT22;61664;48.112;11.662;2023-08-07T01:22:15;13.00;91.80
31379;DHT22;61664;48.112;11.662;2023-08-07T01:24:45;12.90;92.00
31379;DHT22;61664;48.112;11.662;2023-08-07T01:33:01;12.80;92.70
31379;DHT22;61664;48.112;11.662;2023-08-07T01:35:40;12.70;92.90
31379;DHT22;61664;48.112;11.662;2023-08-07T01:38:11;12.70;93.00
31379;DHT22;61664;48.112;11.662;2023-08-07T01:40:42;12.70;93.10
31379;DHT22;61664;48.112;11.662;2023-08-07T01:43:10;12.70;93.20
31379;DHT22;61664;48.112;11.662;2023-08-07T01:45:37;12.60;93.30
31379;DHT22;61664;48.112;11.662;2023-08-07T01:48:04;12.60;93.40
31379;DHT22;61664;48.112;11.662;2023-08-07T01:50:31;12.60;93.30
31379;DHT22;61664;48.112;11.662;2023-08-07T01:52:59;12.60;93.40
31379;DHT22;61664;48.112;11.662;2023-08-07T01:55:28;12.60;93.40
31379;DHT22;61664;48.112;11.662;2023-08-07T01:57:56;12.60;93.40
31379;DHT22;61664;48.112;11.662;2023-08-07T02:00:23;12.50;93.40
31379;DHT22;61664;48.112;11.662;2023-08-07T02:02:50;12.50;93.40
31379;DHT22;61664;48.112;11.662;2023-08-07T02:05:17;12.50;93.40
31379;DHT22;61664;48.112;11.662;2023-08-07T02:07:44;12.50;93.40
31379;DHT22;61664;48.112;11.662;2023-08-07T02:10:11;12.50;93.40
31379;DHT22;61664;48.112;11.662;2023-08-07T02:12:37;12.40;93.30
31379;DHT22;61664;48.112;11.662;2023-08-07T02:15:05;12.50;93.40
31379;DHT22;61664;48.112;11.662;2023-08-07T02:17:32;12.40;93.50
31379;DHT22;61664;48.112;11.662;2023-08-07T02:19:59;12.40;93.50
31379;DHT22;61664;48.112;11.662;2023-08-07T02:22:26;12.30;93.60
31379;DHT22;61664;48.112;11.662;2023-08-07T02:24:53;12.30;93.70
31379;DHT22;61664;48.112;11.662;2023-08-07T02:27:20;12.30;93.80
31379;DHT22;61664;48.112;11.662;2023-08-07T02:29:47;12.30;93.90
31379;DHT22;61664;48.112;11.662;2023-08-07T02:32:14;12.30;93.80
31379;DHT22;61664;48.112;11.662;2023-08-07T02:34:41;12.30;93.80
31379;DHT22;61664;48.112;11.662;2023-08-07T02:37:07;12.30;93.80
31379;DHT22;61664;48.112;11.662;2023-08-07T02:39:34;12.30;93.90
31379;DHT22;61664;48.112;11.662;2023-08-07T02:42:01;12.30;93.90
31379;DHT22;61664;48.112;11.662;2023-08-07T02:44:29;12.30;93.90
31379;DHT22;61664;48.112;11.662;2023-08-07T02:46:56;12.30;94.10
31379;DHT22;61664;48.112;11.662;2023-08-07T02:49:23;12.50;94.20
31379;DHT22;61664;48.112;11.662;2023-08-07T02:51:50;12.30;94.20
31379;DHT22;61664;48.112;11.662;2023-08-07T02:54:17;12.30;94.20
31379;DHT22;61664;48.112;11.662;2023-08-07T02:56:44;12.30;94.30
31379;DHT22;61664;48.112;11.662;2023-08-07T02:59:11;12.30;94.30
31379;DHT22;61664;48.112;11.662;2023-08-07T03:01:38;12.40;94.30
31379;DHT22;61664;48.112;11.662;2023-08-07T03:04:05;12.30;94.40
31379;DHT22;61664;48.112;11.662;2023-08-07T03:06:32;12.30;94.40
31379;DHT22;61664;48.112;11.662;2023-08-07T03:08:58;12.30;94.20
31379;DHT22;61664;48.112;11.662;2023-08-07T03:11:25;12.30;94.20
31379;DHT22;61664;48.112;11.662;2023-08-07T03:13:52;12.30;94.20
31379;DHT22;61664;48.112;11.662;2023-08-07T03:16:19;12.30;94.20
31379;DHT22;61664;48.112;11.662;2023-08-07T03:18:46;12.30;94.40
31379;DHT22;61664;48.112;11.662;2023-08-07T03:21:13;12.30;94.30
31379;DHT22;61664;48.112;11.662;2023-08-07T03:23:40;12.30;94.50
31379;DHT22;61664;48.112;11.662;2023-08-07T03:26:09;12.40;94.60
31379;DHT22;61664;48.112;11.662;2023-08-07T03:28:45;12.30;94.50
31379;DHT22;61664;48.112;11.662;2023-08-07T03:31:15;12.40;94.60
31379;DHT22;61664;48.112;11.662;2023-08-07T03:33:43;12.40;94.50
31379;DHT22;61664;48.112;11.662;2023-08-07T03:36:09;12.40;94.40
31379;DHT22;61664;48.112;11.662;2023-08-07T03:38:36;12.40;94.40
31379;DHT22;61664;48.112;11.662;2023-08-07T03:41:04;12.40;94.40
31379;DHT22;61664;48.112;11.662;2023-08-07T03:43:30;12.40;94.40
31379;DHT22;61664;48.112;11.662;2023-08-07T03:45:58;12.40;94.40
31379;DHT22;61664;48.112;11.662;2023-08-07T03:48:29;12.40;94.40
31379;DHT22;61664;48.112;11.662;2023-08-07T03:51:03;12.40;94.40
31379;DHT22;61664;48.112;11.662;2023-08-07T03:53:30;12.40;94.40
31379;DHT22;61664;48.112;11.662;2023-08-07T03:55:57;12.40;94.50
31379;DHT22;61664;48.112;11.662;2023-08-07T03:58:24;12.40;94.50
31379;DHT22;61664;48.112;11.662;2023-08-07T04:00:51;12.50;94.60
31379;DHT22;61664;48.112;11.662;2023-08-07T04:03:20;12.40;94.60
31379;DHT22;61664;48.112;11.662;2023-08-07T04:05:51;12.50;94.70
31379;DHT22;61664;48.112;11.662;2023-08-07T04:08:18;12.50;94.70
31379;DHT22;61664;48.112;11.662;2023-08-07T04:11:00;12.50;94.80
31379;DHT22;61664;48.112;11.662;2023-08-07T04:13:29;12.60;94.50
31379;DHT22;61664;48.112;11.662;2023-08-07T04:15:57;12.50;94.90
31379;DHT22;61664;48.112;11.662;2023-08-07T04:18:25;12.60;94.90
31379;DHT22;61664;48.112;11.662;2023-08-07T04:20:56;12.60;94.90
31379;DHT22;61664;48.112;11.662;2023-08-07T04:23:23;12.60;94.80
31379;DHT22;61664;48.112;11.662;2023-08-07T04:25:52;12.80;94.90
31379;DHT22;61664;48.112;11.662;2023-08-07T04:28:20;12.70;94.80
31379;DHT22;61664;48.112;11.662;2023-08-07T04:30:51;12.70;94.80
31379;DHT22;61664;48.112;11.662;2023-08-07T04:33:20;12.70;94.90
31379;DHT22;61664;48.112;11.662;2023-08-07T04:35:47;12.70;94.70
31379;DHT22;61664;48.112;11.662;2023-08-07T04:38:15;12.70;94.70
31379;DHT22;61664;48.112;11.662;2023-08-07T04:40:46;12.80;94.80
31379;DHT22;61664;48.112;11.662;2023-08-07T04:43:14;12.80;94.60
31379;DHT22;61664;48.112;11.662;2023-08-07T04:45:42;12.90;94.90
31379;DHT22;61664;48.112;11.662;2023-08-07T04:48:12;12.90;95.00
31379;DHT22;61664;48.112;11.662;2023-08-07T04:50:39;12.90;95.00
31379;DHT22;61664;48.112;11.662;2023-08-07T04:53:07;12.90;95.40
31379;DHT22;61664;48.112;11.662;2023-08-07T04:55:34;13.00;95.50
31379;DHT22;61664;48.112;11.662;2023-08-07T04:58:01;13.00;95.40
31379;DHT22;61664;48.112;11.662;2023-08-07T05:00:28;13.10;95.20
31379;DHT22;61664;48.112;11.662;2023-08-07T05:02:55;13.10;95.10
31379;DHT22;61664;48.112;11.662;2023-08-07T05:05:23;13.20;94.90
31379;DHT22;61664;48.112;11.662;2023-08-07T05:07:50;13.20;94.70
31379;DHT22;61664;48.112;11.662;2023-08-07T05:10:17;13.20;94.90
31379;DHT22;61664;48.112;11.662;2023-08-07T05:12:45;13.30;94.50
31379;DHT22;61664;48.112;11.662;2023-08-07T05:15:11;13.30;94.40
31379;DHT22;61664;48.112;11.662;2023-08-07T05:17:39;13.30;94.30
31379;DHT22;61664;48.112;11.662;2023-08-07T05:20:06;13.40;94.30
31379;DHT22;61664;48.112;11.662;2023-08-07T05:22:35;13.40;94.30
31379;DHT22;61664;48.112;11.662;2023-08-07T05:25:03;13.40;94.30
31379;DHT22;61664;48.112;11.662;2023-08-07T05:27:30;13.40;94.10
31379;DHT22;61664;48.112;11.662;2023-08-07T05:30:21;13.50;94.00
31379;DHT22;61664;48.112;11.662;2023-08-07T05:32:48;13.50;93.90
31379;DHT22;61664;48.112;11.662;2023-08-07T05:35:16;13.50;93.80
31379;DHT22;61664;48.112;11.662;2023-08-07T05:37:43;13.60;93.80
31379;DHT22;61664;48.112;11.662;2023-08-07T05:40:10;13.60;93.80
31379;DHT22;61664;48.112;11.662;2023-08-07T05:42:38;13.60;93.60
31379;DHT22;61664;48.112;11.662;2023-08-07T05:45:07;13.60;93.40
31379;DHT22;61664;48.112;11.662;2023-08-07T05:47:36;13.70;93.30
31379;DHT22;61664;48.112;11.662;2023-08-07T05:50:04;13.60;93.20
31379;DHT22;61664;48.112;11.662;2023-08-07T05:52:31;13.70;93.10
31379;DHT22;61664;48.112;11.662;2023-08-07T05:54:58;13.70;92.80
31379;DHT22;61664;48.112;11.662;2023-08-07T05:57:25;13.70;93.00
31379;DHT22;61664;48.112;11.662;2023-08-07T05:59:52;13.80;93.10
31379;DHT22;61664;48.112;11.662;2023-08-07T06:02:19;13.80;93.10
31379;DHT22;61664;48.112;11.662;2023-08-07T06:04:46;13.80;93.00
31379;DHT22;61664;48.112;11.662;2023-08-07T06:07:13;13.80;93.00
31379;DHT22;61664;48.112;11.662;2023-08-07T06:09:40;13.80;92.80
31379;DHT22;61664;48.112;11.662;2023-08-07T06:12:07;13.80;92.60
31379;DHT22;61664;48.112;11.662;2023-08-07T06:14:34;13.80;92.50
31379;DHT22;61664;48.112;11.662;2023-08-07T06:17:01;13.90;92.40
31379;DHT22;61664;48.112;11.662;2023-08-07T06:19:28;13.90;92.40
31379;DHT22;61664;48.112;11.662;2023-08-07T06:21:58;13.90;92.50
31379;DHT22;61664;48.112;11.662;2023-08-07T06:24:27;13.90;92.30
31379;DHT22;61664;48.112;11.662;2023-08-07T06:26:54;13.90;92.50
31379;DHT22;61664;48.112;11.662;2023-08-07T06:29:21;14.00;92.60
31379;DHT22;61664;48.112;11.662;2023-08-07T06:31:48;14.00;92.40
31379;DHT22;61664;48.112;11.662;2023-08-07T06:34:15;14.00;92.30
31379;DHT22;61664;48.112;11.662;2023-08-07T06:36:42;14.10;92.40
31379;DHT22;61664;48.112;11.662;2023-08-07T06:39:09;14.10;92.50
31379;DHT22;61664;48.112;11.662;2023-08-07T06:41:37;14.10;92.40
31379;DHT22;61664;48.112;11.662;2023-08-07T06:44:04;14.20;92.40
31379;DHT22;61664;48.112;11.662;2023-08-07T06:46:31;14.20;92.00
31379;DHT22;61664;48.112;11.662;2023-08-07T06:48:58;14.20;92.10
31379;DHT22;61664;48.112;11.662;2023-08-07T06:51:25;14.30;92.10
31379;DHT22;61664;48.112;11.662;2023-08-07T06:53:52;14.30;92.20
31379;DHT22;61664;48.112;11.662;2023-08-07T06:56:19;14.30;92.00
31379;DHT22;61664;48.112;11.662;2023-08-07T06:58:46;14.40;92.10
31379;DHT22;61664;48.112;11.662;2023-08-07T07:01:13;14.40;92.00
31379;DHT22;61664;48.112;11.662;2023-08-07T07:03:40;14.40;92.10
31379;DHT22;61664;48.112;11.662;2023-08-07T07:06:07;14.50;92.20
31379;DHT22;61664;48.112;11.662;2023-08-07T07:08:35;14.60;92.30
31379;DHT22;61664;48.112;11.662;2023-08-07T07:11:01;14.60;92.00
31379;DHT22;61664;48.112;11.662;2023-08-07T07:13:30;14.60;91.80
31379;DHT22;61664;48.112;11.662;2023-08-07T07:15:57;14.70;91.70
31379;DHT22;61664;48.112;11.662;2023-08-07T07:18:24;14.80;91.90
31379;DHT22;61664;48.112;11.662;2023-08-07T07:20:57;14.80;92.20
31379;DHT22;61664;48.112;11.662;2023-08-07T07:23:25;14.90;91.00
31379;DHT22;61664;48.112;11.662;2023-08-07T07:25:52;15.00;92.20
31379;DHT22;61664;48.112;11.662;2023-08-07T07:28:19;15.00;91.80
31379;DHT22;61664;48.112;11.662;2023-08-07T07:30:47;15.10;92.00
31379;DHT22;61664;48.112;11.662;2023-08-07T07:33:14;15.20;92.10
31379;DHT22;61664;48.112;11.662;2023-08-07T07:35:40;15.30;92.40
31379;DHT22;61664;48.112;11.662;2023-08-07T07:38:07;15.40;91.40
31379;DHT22;61664;48.112;11.662;2023-08-07T07:40:35;15.50;91.20
31379;DHT22;61664;48.112;11.662;2023-08-07T07:43:03;15.50;91.00
31379;DHT22;61664;48.112;11.662;2023-08-07T07:45:30;15.60;91.20
31379;DHT22;61664;48.112;11.662;2023-08-07T07:47:57;15.70;91.60
31379;DHT22;61664;48.112;11.662;2023-08-07T07:50:24;15.80;91.00
31379;DHT22;61664;48.112;11.662;2023-08-07T07:52:51;15.80;90.90
31379;DHT22;61664;48.112;11.662;2023-08-07T07:55:18;15.90;91.10
31379;DHT22;61664;48.112;11.662;2023-08-07T07:57:45;16.00;90.30
31379;DHT22;61664;48.112;11.662;2023-08-07T08:00:13;16.00;90.20
31379;DHT22;61664;48.112;11.662;2023-08-07T08:02:40;16.10;90.10
31379;DHT22;61664;48.112;11.662;2023-08-07T08:05:09;16.10;90.00
31379;DHT22;61664;48.112;11.662;2023-08-07T08:07:39;16.10;88.90
31379;DHT22;61664;48.112;11.662;2023-08-07T08:10:08;16.10;88.20
31379;DHT22;61664;48.112;11.662;2023-08-07T08:12:36;16.10;87.90
31379;DHT22;61664;48.112;11.662;2023-08-07T08:15:03;16.10;88.80
31379;DHT22;61664;48.112;11.662;2023-08-07T08:17:31;16.10;89.90
31379;DHT22;61664;48.112;11.662;2023-08-07T08:19:59;16.10;89.90
31379;DHT22;61664;48.112;11.662;2023-08-07T08:22:26;16.10;88.90
31379;DHT22;61664;48.112;11.662;2023-08-07T08:24:52;16.10;89.20
31379;DHT22;61664;48.112;11.662;2023-08-07T08:27:19;16.10;88.80
31379;DHT22;61664;48.112;11.662;2023-08-07T08:29:47;16.10;87.50
31379;DHT22;61664;48.112;11.662;2023-08-07T08:32:14;16.10;87.80
31379;DHT22;61664;48.112;11.662;2023-08-07T08:34:41;16.10;88.40
31379;DHT22;61664;48.112;11.662;2023-08-07T08:37:08;16.20;90.00
31379;DHT22;61664;48.112;11.662;2023-08-07T08:39:37;16.20;88.30
31379;DHT22;61664;48.112;11.662;2023-08-07T08:42:04;16.20;88.90
31379;DHT22;61664;48.112;11.662;2023-08-07T08:44:36;16.20;88.40
31379;DHT22;61664;48.112;11.662;2023-08-07T08:47:13;16.20;88.40
31379;DHT22;61664;48.112;11.662;2023-08-07T08:49:51;16.20;90.00
31379;DHT22;61664;48.112;11.662;2023-08-07T08:52:25;16.20;84.60
31379;DHT22;61664;48.112;11.662;2023-08-07T08:54:56;16.20;88.80
31379;DHT22;61664;48.112;11.662;2023-08-07T08:57:25;16.30;87.60
31379;DHT22;61664;48.112;11.662;2023-08-07T08:59:53;16.30;87.80
31379;DHT22;61664;48.112;11.662;2023-08-07T09:02:21;16.30;89.10
31379;DHT22;61664;48.112;11.662;2023-08-07T09:04:48;16.30;89.10
31379;DHT22;61664;48.112;11.662;2023-08-07T09:07:16;16.30;89.20
31379;DHT22;61664;48.112;11.662;2023-08-07T09:09:46;16.40;90.20
31379;DHT22;61664;48.112;11.662;2023-08-07T09:12:26;16.40;90.30
31379;DHT22;61664;48.112;11.662;2023-08-07T09:14:58;16.50;89.10
31379;DHT22;61664;48.112;11.662;2023-08-07T09:17:31;16.50;88.30
31379;DHT22;61664;48.112;11.662;2023-08-07T09:20:01;16.50;87.20
31379;DHT22;61664;48.112;11.662;2023-08-07T09:22:31;16.50;86.70
31379;DHT22;61664;48.112;11.662;2023-08-07T09:24:57;16.60;86.20
31379;DHT22;61664;48.112;11.662;2023-08-07T09:27:26;16.60;88.40
31379;DHT22;61664;48.112;11.662;2023-08-07T09:29:57;16.70;88.40
31379;DHT22;61664;48.112;11.662;2023-08-07T09:32:24;16.70;86.90
31379;DHT22;61664;48.112;11.662;2023-08-07T09:34:51;16.80;84.10
31379;DHT22;61664;48.112;11.662;2023-08-07T09:37:18;16.90;88.20
31379;DHT22;61664;48.112;11.662;2023-08-07T09:39:46;16.90;87.90
31379;DHT22;61664;48.112;11.662;2023-08-07T09:42:15;16.90;90.00
31379;DHT22;61664;48.112;11.662;2023-08-07T09:44:43;16.90;90.10
31379;DHT22;61664;48.112;11.662;2023-08-07T09:47:16;16.90;90.20
31379;DHT22;61664;48.112;11.662;2023-08-07T09:49:45;17.00;90.10
31379;DHT22;61664;48.112;11.662;2023-08-07T09:52:14;17.00;90.60
31379;DHT22;61664;48.112;11.662;2023-08-07T09:54:42;17.00;90.90
31379;DHT22;61664;48.112;11.662;2023-08-07T09:57:09;17.10;92.00
31379;DHT22;61664;48.112;11.662;2023-08-07T09:59:36;17.20;91.10
31379;DHT22;61664;48.112;11.662;2023-08-07T10:02:04;17.30;91.50
31379;DHT22;61664;48.112;11.662;2023-08-07T10:04:31;17.40;91.90
31379;DHT22;61664;48.112;11.662;2023-08-07T10:06:59;17.50;92.10
31379;DHT22;61664;48.112;11.662;2023-08-07T10:09:28;17.60;91.70
31379;DHT22;61664;48.112;11.662;2023-08-07T10:11:56;17.70;91.40
31379;DHT22;61664;48.112;11.662;2023-08-07T10:14:25;17.80;92.70
31379;DHT22;61664;48.112;11.662;2023-08-07T10:16:53;17.90;93.60
31379;DHT22;61664;48.112;11.662;2023-08-07T10:19:21;18.10;92.60
31379;DHT22;61664;48.112;11.662;2023-08-07T10:21:49;18.20;92.20
31379;DHT22;61664;48.112;11.662;2023-08-07T10:24:17;18.30;92.30
31379;DHT22;61664;48.112;11.662;2023-08-07T10:26:46;18.40;92.60
31379;DHT22;61664;48.112;11.662;2023-08-07T10:29:18;18.60;93.00
31379;DHT22;61664;48.112;11.662;2023-08-07T10:31:48;18.70;92.00
31379;DHT22;61664;48.112;11.662;2023-08-07T10:34:16;18.90;92.30
31379;DHT22;61664;48.112;11.662;2023-08-07T10:36:44;19.00;92.80
31379;DHT22;61664;48.112;11.662;2023-08-07T10:39:12;19.20;92.20
31379;DHT22;61664;48.112;11.662;2023-08-07T10:41:45;19.40;91.90
31379;DHT22;61664;48.112;11.662;2023-08-07T10:44:25;19.50;90.30
31379;DHT22;61664;48.112;11.662;2023-08-07T10:46:58;19.60;86.50
31379;DHT22;61664;48.112;11.662;2023-08-07T10:49:32;19.70;88.40
31379;DHT22;61664;48.112;11.662;2023-08-07T10:52:13;19.80;86.00
31379;DHT22;61664;48.112;11.662;2023-08-07T10:54:50;19.90;84.20
31379;DHT22;61664;48.112;11.662;2023-08-07T10:57:18;19.90;87.90
31379;DHT22;61664;48.112;11.662;2023-08-07T11:02:30;19.90;82.00
31379;DHT22;61664;48.112;11.662;2023-08-07T11:04:57;20.00;86.60
31379;DHT22;61664;48.112;11.662;2023-08-07T11:07:25;20.10;88.20
31379;DHT22;61664;48.112;11.662;2023-08-07T11:09:54;20.30;86.80
31379;DHT22;61664;48.112;11.662;2023-08-07T11:12:26;20.40;85.10
31379;DHT22;61664;48.112;11.662;2023-08-07T11:14:55;20.50;85.00
31379;DHT22;61664;48.112;11.662;2023-08-07T11:17:27;20.60;86.20
31379;DHT22;61664;48.112;11.662;2023-08-07T11:19:56;20.70;82.00
31379;DHT22;61664;48.112;11.662;2023-08-07T11:22:23;20.70;77.50
31379;DHT22;61664;48.112;11.662;2023-08-07T11:24:51;20.80;77.20
31379;DHT22;61664;48.112;11.662;2023-08-07T11:27:20;20.70;77.80
31379;DHT22;61664;48.112;11.662;2023-08-07T11:29:48;20.80;79.80
31379;DHT22;61664;48.112;11.662;2023-08-07T11:32:16;20.70;79.00
31379;DHT22;61664;48.112;11.662;2023-08-07T11:34:49;20.60;75.40
31379;DHT22;61664;48.112;11.662;2023-08-07T11:37:19;20.60;75.70
31379;DHT22;61664;48.112;11.662;2023-08-07T11:39:46;20.60;76.80
31379;DHT22;61664;48.112;11.662;2023-08-07T11:42:13;20.50;78.20
31379;DHT22;61664;48.112;11.662;2023-08-07T11:44:41;20.50;78.80
31379;DHT22;61664;48.112;11.662;2023-08-07T11:47:09;20.40;78.30
31379;DHT22;61664;48.112;11.662;2023-08-07T11:49:37;20.30;75.80
31379;DHT22;61664;48.112;11.662;2023-08-07T11:52:05;20.20;76.60
31379;DHT22;61664;48.112;11.662;2023-08-07T11:54:32;20.10;77.20
31379;DHT22;61664;48.112;11.662;2023-08-07T11:56:59;20.00;75.40
31379;DHT22;61664;48.112;11.662;2023-08-07T11:59:26;19.90;75.80
31379;DHT22;61664;48.112;11.662;2023-08-07T12:01:53;19.80;76.00
31379;DHT22;61664;48.112;11.662;2023-08-07T12:04:20;19.70;76.80
31379;DHT22;61664;48.112;11.662;2023-08-07T12:06:56;19.60;78.10
31379;DHT22;61664;48.112;11.662;2023-08-07T12:09:26;19.60;78.40
31379;DHT22;61664;48.112;11.662;2023-08-07T12:11:58;19.60;80.50
31379;DHT22;61664;48.112;11.662;2023-08-07T12:14:29;19.70;78.60
31379;DHT22;61664;48.112;11.662;2023-08-07T12:16:56;19.70;80.50
31379;DHT22;61664;48.112;11.662;2023-08-07T12:19:24;19.80;80.30
31379;DHT22;61664;48.112;11.662;2023-08-07T12:21:51;19.80;80.10
31379;DHT22;61664;48.112;11.662;2023-08-07T12:24:17;19.70;79.50
31379;DHT22;61664;48.112;11.662;2023-08-07T12:26:44;19.70;80.30
31379;DHT22;61664;48.112;11.662;2023-08-07T12:29:11;19.80;80.90
31379;DHT22;61664;48.112;11.662;2023-08-07T12:31:38;19.90;80.60
31379;DHT22;61664;48.112;11.662;2023-08-07T12:34:06;19.90;78.90
31379;DHT22;61664;48.112;11.662;2023-08-07T12:36:35;20.00;79.50
31379;DHT22;61664;48.112;11.662;2023-08-07T12:39:02;20.00;78.40
31379;DHT22;61664;48.112;11.662;2023-08-07T12:41:30;20.10;78.30
31379;DHT22;61664;48.112;11.662;2023-08-07T12:44:00;20.20;81.20
31379;DHT22;61664;48.112;11.662;2023-08-07T12:46:27;20.40;80.40
31379;DHT22;61664;48.112;11.662;2023-08-07T12:48:58;20.60;79.50
31379;DHT22;61664;48.112;11.662;2023-08-07T12:51:25;20.70;80.10
31379;DHT22;61664;48.112;11.662;2023-08-07T12:53:51;20.80;79.20
31379;DHT22;61664;48.112;11.662;2023-08-07T12:56:20;20.90;78.40
31379;DHT22;61664;48.112;11.662;2023-08-07T12:58:46;21.00;76.20
31379;DHT22;61664;48.112;11.662;2023-08-07T13:01:13;21.00;76.00
31379;DHT22;61664;48.112;11.662;2023-08-07T13:03:40;21.00;75.60
31379;DHT22;61664;48.112;11.662;2023-08-07T13:06:07;20.90;73.70
31379;DHT22;61664;48.112;11.662;2023-08-07T13:08:35;20.80;72.00
31379;DHT22;61664;48.112;11.662;2023-08-07T13:11:02;20.70;73.20
31379;DHT22;61664;48.112;11.662;2023-08-07T13:13:30;20.50;74.50
31379;DHT22;61664;48.112;11.662;2023-08-07T13:15:57;20.50;75.70
31379;DHT22;61664;48.112;11.662;2023-08-07T13:18:24;20.40;75.70
31379;DHT22;61664;48.112;11.662;2023-08-07T13:20:51;20.40;75.00
31379;DHT22;61664;48.112;11.662;2023-08-07T13:23:18;20.40;73.70
31379;DHT22;61664;48.112;11.662;2023-08-07T13:25:45;20.50;74.40
31379;DHT22;61664;48.112;11.662;2023-08-07T13:28:12;20.40;74.10
31379;DHT22;61664;48.112;11.662;2023-08-07T13:30:39;20.50;74.40
31379;DHT22;61664;48.112;11.662;2023-08-07T13:33:05;20.60;75.80
31379;DHT22;61664;48.112;11.662;2023-08-07T13:35:33;20.70;77.50
31379;DHT22;61664;48.112;11.662;2023-08-07T13:38:00;20.90;76.50
31379;DHT22;61664;48.112;11.662;2023-08-07T13:40:27;21.20;78.10
31379;DHT22;61664;48.112;11.662;2023-08-07T13:42:53;21.50;73.90
31379;DHT22;61664;48.112;11.662;2023-08-07T13:45:20;21.60;74.00
31379;DHT22;61664;48.112;11.662;2023-08-07T13:47:47;21.70;73.40
31379;DHT22;61664;48.112;11.662;2023-08-07T13:50:14;21.60;69.20
31379;DHT22;61664;48.112;11.662;2023-08-07T13:52:42;21.50;69.70
31379;DHT22;61664;48.112;11.662;2023-08-07T13:55:09;21.30;68.60
31379;DHT22;61664;48.112;11.662;2023-08-07T13:57:36;21.10;68.50
31379;DHT22;61664;48.112;11.662;2023-08-07T14:00:04;21.00;68.50
31379;DHT22;61664;48.112;11.662;2023-08-07T14:02:31;20.90;70.80
31379;DHT22;61664;48.112;11.662;2023-08-07T14:05:01;20.90;70.60
31379;DHT22;61664;48.112;11.662;2023-08-07T14:07:29;21.00;72.70
31379;DHT22;61664;48.112;11.662;2023-08-07T14:09:56;21.20;75.70
31379;DHT22;61664;48.112;11.662;2023-08-07T14:12:23;21.60;77.80
31379;DHT22;61664;48.112;11.662;2023-08-07T14:14:50;22.00;77.20
31379;DHT22;61664;48.112;11.662;2023-08-07T14:17:17;22.30;74.50
31379;DHT22;61664;48.112;11.662;2023-08-07T14:19:44;22.50;69.60
31379;DHT22;61664;48.112;11.662;2023-08-07T14:22:11;22.50;69.40
31379;DHT22;61664;48.112;11.662;2023-08-07T14:24:38;22.40;68.90
31379;DHT22;61664;48.112;11.662;2023-08-07T14:27:04;22.40;69.10
31379;DHT22;61664;48.112;11.662;2023-08-07T14:29:31;22.30;69.00
31379;DHT22;61664;48.112;11.662;2023-08-07T14:31:58;22.20;67.30
31379;DHT22;61664;48.112;11.662;2023-08-07T14:34:25;22.20;67.90
31379;DHT22;61664;48.112;11.662;2023-08-07T14:36:52;22.20;66.30
31379;DHT22;61664;48.112;11.662;2023-08-07T14:39:20;22.10;65.90
31379;DHT22;61664;48.112;11.662;2023-08-07T14:41:50;22.00;66.20
31379;DHT22;61664;48.112;11.662;2023-08-07T14:44:18;21.80;65.20
31379;DHT22;61664;48.112;11.662;2023-08-07T14:46:45;21.70;65.00
31379;DHT22;61664;48.112;11.662;2023-08-07T14:49:12;21.50;64.30
31379;DHT22;61664;48.112;11.662;2023-08-07T14:51:39;21.30;65.10
31379;DHT22;61664;48.112;11.662;2023-08-07T14:54:06;21.10;65.20
31379;DHT22;61664;48.112;11.662;2023-08-07T14:56:33;20.90;63.80
31379;DHT22;61664;48.112;11.662;2023-08-07T14:59:00;20.80;64.20
31379;DHT22;61664;48.112;11.662;2023-08-07T15:01:27;20.60;64.60
31379;DHT22;61664;48.112;11.662;2023-08-07T15:03:54;20.50;64.10
31379;DHT22;61664;48.112;11.662;2023-08-07T15:06:21;20.40;64.70
31379;DHT22;61664;48.112;11.662;2023-08-07T15:08:48;20.20;63.70
31379;DHT22;61664;48.112;11.662;2023-08-07T15:11:16;20.10;64.20
31379;DHT22;61664;48.112;11.662;2023-08-07T15:13:43;20.00;63.30
31379;DHT22;61664;48.112;11.662;2023-08-07T15:16:10;19.90;63.40
31379;DHT22;61664;48.112;11.662;2023-08-07T15:18:37;19.70;63.80
31379;DHT22;61664;48.112;11.662;2023-08-07T15:21:07;19.60;65.10
31379;DHT22;61664;48.112;11.662;2023-08-07T15:23:34;19.60;65.80
31379;DHT22;61664;48.112;11.662;2023-08-07T15:26:01;19.50;66.30
31379;DHT22;61664;48.112;11.662;2023-08-07T15:28:28;19.60;67.70
31379;DHT22;61664;48.112;11.662;2023-08-07T15:30:55;19.50;66.40
31379;DHT22;61664;48.112;11.662;2023-08-07T15:33:22;19.50;67.30
31379;DHT22;61664;48.112;11.662;2023-08-07T15:35:53;19.50;67.60